createdAt,value
2019-02-28T00:01:40.135Z,0.80
2019-02-28T00:05:42.205Z,0.80
2019-02-28T00:09:44.249Z,0.80
2019-02-28T00:13:46.135Z,0.70
2019-02-28T00:17:48.042Z,0.70
2019-02-28T00:21:49.937Z,0.70
2019-02-28T00:25:52.861Z,0.70
2019-02-28T00:29:54.748Z,0.60
2019-02-28T00:33:56.635Z,0.60
2019-02-28T00:37:58.599Z,0.60
2019-02-28T00:42:00.502Z,0.60
2019-02-28T00:46:02.421Z,0.50
2019-02-28T00:50:05.346Z,0.40
2019-02-28T00:54:08.684Z,0.40
2019-02-28T00:58:10.904Z,0.30
2019-02-28T01:02:12.884Z,0.30
2019-02-28T01:06:14.768Z,0.30
2019-02-28T01:10:17.082Z,0.30
2019-02-28T01:14:19.005Z,0.20
2019-02-28T01:18:20.955Z,0.20
2019-02-28T01:22:22.859Z,0.10
2019-02-28T01:26:24.763Z,0.10
2019-02-28T01:30:26.738Z,0.10
2019-02-28T01:34:32.061Z,0.10
2019-02-28T01:38:32.704Z,0.00
2019-02-28T01:42:34.673Z,0.00
2019-02-28T01:46:36.572Z,0.00
2019-02-28T01:50:38.501Z,-0.10
2019-02-28T01:54:41.378Z,-0.10
2019-02-28T01:58:43.280Z,-0.10
2019-02-28T02:02:45.202Z,-0.20
2019-02-28T02:06:47.456Z,-0.20
2019-02-28T02:10:49.448Z,-0.30
2019-02-28T02:14:53.045Z,-0.40
2019-02-28T02:18:54.959Z,-0.40
2019-02-28T02:22:56.890Z,-0.50
2019-02-28T02:26:58.810Z,-0.50
2019-02-28T02:36:23.839Z,-0.50
2019-02-28T02:40:25.759Z,-0.50
2019-02-28T02:44:31.774Z,-0.60
2019-02-28T02:48:31.275Z,-0.60
2019-02-28T02:52:33.200Z,-0.60
2019-02-28T02:56:40.668Z,-0.70
2019-02-28T03:00:38.719Z,-0.70
2019-02-28T03:04:40.672Z,-0.80
2019-02-28T03:08:42.583Z,-0.80
2019-02-28T03:12:44.668Z,-0.90
2019-02-28T03:16:46.582Z,-0.90
2019-02-28T03:20:48.506Z,-0.90
2019-02-28T03:24:52.072Z,-0.90
2019-02-28T03:28:55.265Z,-1.00
2019-02-28T03:32:57.166Z,-1.00
2019-02-28T03:36:59.078Z,-1.00
2019-02-28T03:41:01.446Z,-1.10
2019-02-28T03:45:03.836Z,-1.10
2019-02-28T03:49:11.015Z,-1.10
2019-02-28T03:53:09.411Z,-1.10
2019-02-28T03:57:11.395Z,-1.10
2019-02-28T04:01:13.376Z,-1.10
2019-02-28T04:05:15.290Z,-1.20
2019-02-28T04:09:17.207Z,-1.20
2019-02-28T04:13:20.318Z,-1.20
2019-02-28T04:17:22.317Z,-1.20
2019-02-28T04:21:24.234Z,-1.30
2019-02-28T04:25:26.284Z,-1.30
2019-02-28T04:29:31.124Z,-1.30
2019-02-28T04:33:37.352Z,-1.40
2019-02-28T04:37:35.416Z,-1.40
2019-02-28T04:41:37.332Z,-1.40
2019-02-28T04:45:39.238Z,-1.40
2019-02-28T04:49:41.144Z,-1.50
2019-02-28T04:53:43.072Z,-1.40
2019-02-28T04:57:44.994Z,-1.50
2019-02-28T05:01:46.924Z,-1.50
2019-02-28T05:05:48.876Z,-1.60
2019-02-28T05:09:50.780Z,-1.60
2019-02-28T05:13:52.704Z,-1.60
2019-02-28T05:17:55.850Z,-1.60
2019-02-28T05:21:58.247Z,-1.70
2019-02-28T05:26:00.332Z,-1.70
2019-02-28T05:30:02.245Z,-1.70
2019-02-28T05:34:04.494Z,-1.70
2019-02-28T05:38:06.414Z,-1.70
2019-02-28T05:42:08.328Z,-1.70
2019-02-28T05:46:10.303Z,-1.70
2019-02-28T05:50:16.598Z,-1.70
2019-02-28T05:54:17.235Z,-1.70
2019-02-28T05:58:20.854Z,-1.70
2019-02-28T06:02:23.348Z,-1.70
2019-02-28T06:06:26.629Z,-1.80
2019-02-28T06:10:29.500Z,-1.80
2019-02-28T06:14:31.410Z,-1.80
2019-02-28T06:18:33.600Z,-1.80
2019-02-28T06:22:36.300Z,-1.70
2019-02-28T06:26:38.326Z,-1.70
2019-02-28T06:30:41.452Z,-1.70
2019-02-28T06:34:43.841Z,-1.60
2019-02-28T06:38:45.766Z,-1.60
2019-02-28T06:42:47.795Z,-1.60
2019-02-28T06:46:49.690Z,-1.60
2019-02-28T06:50:51.593Z,-1.50
2019-02-28T06:54:54.340Z,-1.40
2019-02-28T06:58:56.412Z,-1.40
2019-02-28T07:02:58.334Z,-1.30
2019-02-28T07:07:00.261Z,-1.20
2019-02-28T07:11:02.181Z,-1.10
2019-02-28T07:15:04.836Z,-0.90
2019-02-28T07:19:06.755Z,-0.80
2019-02-28T07:23:08.682Z,-0.70
2019-02-28T07:27:10.608Z,-0.60
2019-02-28T07:31:12.518Z,-0.40
2019-02-28T07:35:14.786Z,-0.10
2019-02-28T07:39:16.761Z,0.30
2019-02-28T07:43:19.371Z,1.30
2019-02-28T07:47:21.328Z,1.90
2019-02-28T07:51:26.172Z,3.10
2019-02-28T07:55:27.343Z,4.40
2019-02-28T07:59:30.466Z,5.20
2019-02-28T08:03:32.414Z,6.30
2019-02-28T08:07:34.329Z,6.80
2019-02-28T08:11:36.255Z,7.30
2019-02-28T08:15:38.323Z,7.70
2019-02-28T08:19:40.250Z,8.10
2019-02-28T08:23:42.145Z,8.20
2019-02-28T08:27:44.140Z,8.40
2019-02-28T08:31:46.053Z,8.70
2019-02-28T08:35:49.031Z,9.00
2019-02-28T08:39:50.946Z,9.20
2019-02-28T08:43:52.871Z,9.30
2019-02-28T08:47:56.764Z,9.40
2019-02-28T08:51:58.412Z,9.50
2019-02-28T08:56:00.315Z,9.60
2019-02-28T09:00:02.259Z,9.70
2019-02-28T09:04:05.857Z,9.80
2019-02-28T09:08:07.811Z,9.90
2019-02-28T09:12:09.864Z,9.90
2019-02-28T09:16:11.779Z,10.10
2019-02-28T09:20:17.499Z,10.10
2019-02-28T09:24:19.456Z,10.30
2019-02-28T09:28:21.386Z,10.40
2019-02-28T09:32:23.356Z,10.70
2019-02-28T09:36:25.272Z,10.90
2019-02-28T09:40:29.460Z,11.00
2019-02-28T09:44:31.754Z,11.10
2019-02-28T09:48:37.218Z,11.40
2019-02-28T09:52:41.253Z,11.50
2019-02-28T09:56:44.505Z,11.70
2019-02-28T10:00:49.289Z,12.00
2019-02-28T10:04:50.021Z,12.20
2019-02-28T10:08:51.947Z,12.40
2019-02-28T10:12:53.877Z,12.50
2019-02-28T10:16:55.787Z,12.70
2019-02-28T10:20:58.970Z,12.90
2019-02-28T10:25:03.553Z,12.90
2019-02-28T10:29:07.450Z,13.10
2019-02-28T10:33:09.234Z,13.30
2019-02-28T10:37:11.147Z,13.50
2019-02-28T10:41:15.373Z,13.80
2019-02-28T10:45:17.669Z,13.90
2019-02-28T10:49:21.094Z,13.90
2019-02-28T10:53:23.368Z,14.00
2019-02-28T10:57:25.282Z,14.10
2019-02-28T11:01:27.208Z,14.40
2019-02-28T11:05:35.065Z,14.50
2019-02-28T11:09:36.995Z,14.40
2019-02-28T11:13:57.723Z,14.60
2019-02-28T11:18:09.760Z,14.80
2019-02-28T11:22:11.992Z,15.00
2019-02-28T11:26:13.986Z,15.10
2019-02-28T11:30:31.663Z,15.30
2019-02-28T11:34:34.667Z,15.50
2019-02-28T11:38:36.594Z,15.30
2019-02-28T11:42:38.566Z,15.30
2019-02-28T11:46:40.509Z,15.30
2019-02-28T11:50:44.944Z,15.30
2019-02-28T11:54:46.332Z,15.30
2019-02-28T11:58:51.476Z,15.20
2019-02-28T12:02:53.522Z,15.50
2019-02-28T12:06:57.384Z,15.60
2019-02-28T12:11:01.925Z,15.70
2019-02-28T12:15:05.987Z,15.60
2019-02-28T12:19:07.755Z,15.70
2019-02-28T12:23:09.756Z,15.60
2019-02-28T12:27:11.688Z,15.40
2019-02-28T12:31:14.091Z,15.60
2019-02-28T12:35:16.191Z,15.70
2019-02-28T12:39:18.155Z,15.70
2019-02-28T12:43:20.075Z,15.60
2019-02-28T12:47:22.776Z,15.80
2019-02-28T12:51:24.709Z,16.20
2019-02-28T12:55:26.629Z,16.30
2019-02-28T12:59:28.556Z,16.60
2019-02-28T13:03:30.468Z,16.90
2019-02-28T13:07:33.915Z,17.00
2019-02-28T13:11:36.543Z,17.40
2019-02-28T13:15:38.531Z,17.10
2019-02-28T13:19:40.468Z,17.00
2019-02-28T13:23:42.455Z,16.70
2019-02-28T13:27:45.242Z,17.00
2019-02-28T13:31:49.049Z,16.90
2019-02-28T13:35:51.000Z,16.70
2019-02-28T13:39:53.000Z,16.60
2019-02-28T13:43:59.220Z,16.40
2019-02-28T13:47:58.548Z,16.80
2019-02-28T13:52:00.541Z,17.40
2019-02-28T13:56:04.935Z,17.70
2019-02-28T14:00:14.493Z,17.90
2019-02-28T14:04:19.395Z,17.90
2019-02-28T14:08:20.322Z,18.10
2019-02-28T14:12:22.417Z,18.30
2019-02-28T14:16:26.932Z,18.50
2019-02-28T14:20:28.486Z,18.10
2019-02-28T14:24:32.015Z,18.00
2019-02-28T14:28:35.613Z,18.20
2019-02-28T14:32:38.684Z,18.30
2019-02-28T14:36:41.824Z,18.20
2019-02-28T14:40:45.201Z,17.40
2019-02-28T14:44:47.117Z,17.00
2019-02-28T14:48:49.044Z,16.50
2019-02-28T14:52:54.295Z,16.10
2019-02-28T14:56:56.220Z,15.60
2019-02-28T15:00:58.149Z,15.20
2019-02-28T15:05:00.057Z,15.40
2019-02-28T15:09:01.993Z,15.80
2019-02-28T15:13:05.875Z,16.10
2019-02-28T15:17:07.816Z,16.30
2019-02-28T15:21:09.717Z,16.20
2019-02-28T15:25:21.016Z,16.20
2019-02-28T15:29:23.384Z,16.10
2019-02-28T15:33:27.459Z,15.80
2019-02-28T15:37:33.373Z,15.60
2019-02-28T15:41:35.016Z,15.40
2019-02-28T15:45:37.542Z,15.20
2019-02-28T15:49:41.768Z,15.00
2019-02-28T15:53:43.168Z,14.90
2019-02-28T15:57:45.352Z,14.60
2019-02-28T16:01:47.300Z,14.50
2019-02-28T16:05:49.239Z,14.40
2019-02-28T16:09:54.161Z,14.40
2019-02-28T16:13:57.465Z,14.40
2019-02-28T16:17:58.950Z,14.30
2019-02-28T16:22:01.664Z,14.10
2019-02-28T16:26:04.060Z,14.10
2019-02-28T16:30:13.711Z,14.00
2019-02-28T16:34:15.730Z,13.90
2019-02-28T16:38:17.677Z,13.80
2019-02-28T16:42:19.694Z,13.70
2019-02-28T16:46:21.797Z,13.60
2019-02-28T16:50:23.794Z,13.60
2019-02-28T16:54:27.788Z,13.40
2019-02-28T16:58:29.374Z,13.30
2019-02-28T17:02:31.305Z,13.30
2019-02-28T17:06:35.658Z,13.20
2019-02-28T17:10:40.052Z,12.90
2019-02-28T17:14:41.795Z,12.80
2019-02-28T17:18:43.721Z,12.70
2019-02-28T17:22:45.660Z,12.60
2019-02-28T17:26:49.236Z,12.40
2019-02-28T17:30:56.768Z,12.30
2019-02-28T17:34:59.036Z,12.10
2019-02-28T17:39:01.609Z,12.00
2019-02-28T17:43:05.212Z,12.00
2019-02-28T17:47:20.223Z,12.00
2019-02-28T17:51:37.886Z,11.90
2019-02-28T17:55:53.184Z,11.90
2019-02-28T18:00:16.140Z,12.20
2019-02-28T18:04:46.413Z,12.20
2019-02-28T18:09:12.636Z,12.30
2019-02-28T18:13:44.551Z,12.20
2019-02-28T18:18:28.204Z,12.20
2019-02-28T18:22:52.870Z,12.20
2019-02-28T18:27:36.691Z,12.20
2019-02-28T18:31:38.676Z,12.10
2019-02-28T18:35:41.380Z,12.00
2019-02-28T18:39:44.595Z,11.90
2019-02-28T18:43:46.930Z,11.90
2019-02-28T18:47:48.874Z,11.90
2019-02-28T18:51:51.873Z,11.90
2019-02-28T18:55:53.871Z,11.80
2019-02-28T18:59:55.806Z,12.00
2019-02-28T19:03:57.740Z,12.10
2019-02-28T19:07:59.772Z,12.20
2019-02-28T19:12:01.821Z,12.10
2019-02-28T19:16:04.233Z,12.00
2019-02-28T19:20:10.165Z,12.00
2019-02-28T19:24:12.095Z,12.10
2019-02-28T19:28:14.008Z,12.20
2019-02-28T19:32:15.967Z,12.30
2019-02-28T19:36:17.910Z,12.40
2019-02-28T19:40:19.914Z,12.50
2019-02-28T19:44:21.883Z,12.40
2019-02-28T19:48:23.794Z,12.30
2019-02-28T19:52:25.823Z,12.30
2019-02-28T19:56:27.864Z,12.30
2019-02-28T20:00:29.872Z,12.10
2019-02-28T20:04:31.814Z,12.10
2019-02-28T20:08:33.726Z,12.00
2019-02-28T20:12:35.731Z,11.90
2019-02-28T20:16:37.739Z,11.90
2019-02-28T20:20:39.673Z,11.90
2019-02-28T20:24:41.685Z,11.80
2019-02-28T20:28:43.606Z,11.70
2019-02-28T20:32:45.791Z,11.50
2019-02-28T20:36:47.986Z,11.20
2019-02-28T20:40:49.971Z,11.00
2019-02-28T20:44:52.930Z,10.80
2019-02-28T20:48:54.862Z,10.70
2019-02-28T20:52:57.884Z,10.50
2019-02-28T20:56:59.820Z,10.40
2019-02-28T21:01:01.839Z,10.20
2019-02-28T21:05:04.744Z,10.10
2019-02-28T21:09:07.928Z,10.00
2019-02-28T21:13:11.458Z,9.90
2019-02-28T21:17:13.372Z,9.90
2019-02-28T21:21:15.288Z,9.80
2019-02-28T21:25:18.887Z,9.70
2019-02-28T21:29:20.860Z,9.60
2019-02-28T21:33:22.771Z,9.50
2019-02-28T21:37:24.940Z,9.50
2019-02-28T21:41:26.914Z,9.50
2019-02-28T21:45:30.000Z,9.40
2019-02-28T21:49:32.951Z,9.30
2019-02-28T21:53:34.869Z,9.20
2019-02-28T21:57:36.788Z,9.10
2019-02-28T22:01:38.763Z,9.10
2019-02-28T22:05:40.679Z,9.00
2019-02-28T22:09:42.574Z,9.00
2019-02-28T22:13:44.488Z,8.90
2019-02-28T22:17:46.398Z,8.80
2019-02-28T22:21:48.320Z,8.80
2019-02-28T22:25:50.247Z,8.80
2019-02-28T22:29:52.141Z,8.80
2019-02-28T22:33:59.885Z,8.80
2019-02-28T22:38:01.794Z,8.60
2019-02-28T22:42:03.777Z,8.60
2019-02-28T22:46:05.705Z,8.60
2019-02-28T22:50:09.911Z,8.50
2019-02-28T22:54:11.819Z,8.50
2019-02-28T22:58:13.733Z,8.40
2019-02-28T23:02:15.781Z,8.40
2019-02-28T23:06:17.749Z,8.30
2019-02-28T23:10:20.176Z,8.30
2019-02-28T23:14:22.082Z,8.30
2019-02-28T23:18:23.982Z,8.20
2019-02-28T23:22:25.893Z,8.10
2019-02-28T23:26:27.968Z,8.10
2019-02-28T23:31:09.243Z,8.00
2019-02-28T23:35:16.317Z,7.90
2019-02-28T23:39:18.221Z,7.80
2019-02-28T23:43:20.143Z,7.70
2019-02-28T23:47:22.047Z,7.60
2019-02-28T23:51:23.946Z,7.50
2019-02-28T23:55:25.846Z,7.40
2019-02-28T23:59:27.769Z,7.50
